DLH5PC ENGM-EDDB
Flight info
| Callsign | DLH5PC |
|---|---|
| Flight time | N/A |
| Altitude | 34000 |
| Route | OKSAT L996 KELIN DCT SALLO DCT RODEP T280 KETAP KETAP1R |
| Aircraft | A21N/M-SDE2E3FGHIRWXY/LB1 |
Departure
| Time | 2026-05-05 15:01 |
|---|---|
| Airport | Oslo-Gardermoen International Airport (ENGM) |
Arrival
| Time | N/A |
|---|---|
| Airport | Berlin Brandenburg Airport (EDDB) |
| Time | Latitude | Longitude | Altitude | Speed | Heading |
|---|---|---|---|---|---|
| 2026-05-05 14:39 | 60.19619 | 11.09129 | 676 ft | 0 kts | 196° |
| 2026-05-05 14:52 | 60.19621 | 11.09130 | 676 ft | 0 kts | 196° |
| 2026-05-05 14:52 | 60.19646 | 11.09145 | 676 ft | 0 kts | 196° |
| 2026-05-05 14:52 | 60.19668 | 11.09157 | 676 ft | 1 kts | 196° |
| 2026-05-05 14:53 | 60.19692 | 11.09177 | 673 ft | 8 kts | 218° |
| 2026-05-05 14:53 | 60.19707 | 11.09215 | 672 ft | 1 kts | 267° |
| 2026-05-05 14:53 | 60.19707 | 11.09233 | 672 ft | 18 kts | 285° |
| 2026-05-05 14:55 | 60.19711 | 11.09200 | 672 ft | 8 kts | 285° |
| 2026-05-05 14:55 | 60.19723 | 11.09114 | 676 ft | 4 kts | 285° |
| 2026-05-05 14:56 | 60.19734 | 11.09039 | 676 ft | 14 kts | 285° |
| 2026-05-05 14:56 | 60.19768 | 11.08803 | 674 ft | 16 kts | 287° |
| 2026-05-05 14:56 | 60.19741 | 11.08652 | 675 ft | 12 kts | 209° |
| 2026-05-05 14:56 | 60.19652 | 11.08597 | 674 ft | 18 kts | 195° |
| 2026-05-05 14:57 | 60.19475 | 11.08491 | 673 ft | 30 kts | 198° |
| 2026-05-05 14:57 | 60.19296 | 11.08391 | 672 ft | 25 kts | 195° |
| 2026-05-05 14:57 | 60.19138 | 11.08300 | 671 ft | 22 kts | 196° |
| 2026-05-05 14:57 | 60.18998 | 11.08218 | 670 ft | 19 kts | 196° |
| 2026-05-05 14:58 | 60.18883 | 11.08150 | 669 ft | 15 kts | 195° |
| 2026-05-05 14:58 | 60.18786 | 11.08096 | 669 ft | 14 kts | 195° |
| 2026-05-05 14:58 | 60.18671 | 11.08029 | 668 ft | 24 kts | 197° |
| 2026-05-05 14:58 | 60.18547 | 11.07910 | 667 ft | 6 kts | 246° |
| 2026-05-05 14:59 | 60.18574 | 11.07627 | 665 ft | 27 kts | 287° |
| 2026-05-05 14:59 | 60.18673 | 11.07476 | 665 ft | 16 kts | 6° |
| 2026-05-05 14:59 | 60.18744 | 11.07515 | 666 ft | 0 kts | 16° |
| 2026-05-05 15:00 | 60.18754 | 11.07521 | 666 ft | 16 kts | 16° |
| 2026-05-05 15:00 | 60.19398 | 11.07881 | 671 ft | 125 kts | 16° |
| 2026-05-05 15:00 | 60.20468 | 11.08508 | 896 ft | 183 kts | 13° |
| 2026-05-05 15:01 | 60.21670 | 11.09214 | 2241 ft | 174 kts | 11° |
| 2026-05-05 15:01 | 60.22893 | 11.09881 | 3229 ft | 194 kts | 11° |
| 2026-05-05 15:01 | 60.24284 | 11.10683 | 3840 ft | 224 kts | 12° |
| 2026-05-05 15:01 | 60.25883 | 11.11397 | 4593 ft | 246 kts | 356° |
| 2026-05-05 15:02 | 60.27632 | 11.11411 | 5698 ft | 256 kts | 7° |
| 2026-05-05 15:02 | 60.29227 | 11.13016 | 7005 ft | 266 kts | 39° |
| 2026-05-05 15:02 | 60.30318 | 11.16153 | 8009 ft | 282 kts | 59° |
| 2026-05-05 15:02 | 60.31198 | 11.19738 | 9177 ft | 286 kts | 62° |
| 2026-05-05 15:03 | 60.31655 | 11.21612 | 9786 ft | 289 kts | 61° |
| 2026-05-05 15:03 | 60.32580 | 11.25248 | 10755 ft | 296 kts | 59° |
| 2026-05-05 15:03 | 60.33558 | 11.29043 | 11419 ft | 315 kts | 59° |
| 2026-05-05 15:03 | 60.34589 | 11.33105 | 11975 ft | 336 kts | 60° |
| 2026-05-05 15:04 | 60.35678 | 11.37434 | 12513 ft | 356 kts | 60° |
| 2026-05-05 15:04 | 60.36414 | 11.42369 | 13021 ft | 382 kts | 84° |
| 2026-05-05 15:04 | 60.36059 | 11.47660 | 14022 ft | 387 kts | 107° |
| 2026-05-05 15:04 | 60.34751 | 11.52491 | 14787 ft | 395 kts | 132° |
| 2026-05-05 15:05 | 60.29988 | 11.57414 | 16389 ft | 390 kts | 175° |
| 2026-05-05 15:05 | 60.27293 | 11.58203 | 17216 ft | 393 kts | 180° |
| 2026-05-05 15:05 | 60.24568 | 11.58893 | 18129 ft | 398 kts | 179° |
| 2026-05-05 15:06 | 60.21813 | 11.59791 | 18872 ft | 404 kts | 178° |
| 2026-05-05 15:06 | 60.19034 | 11.60793 | 19612 ft | 407 kts | 180° |
| 2026-05-05 15:06 | 60.16226 | 11.61710 | 20339 ft | 410 kts | 182° |
| 2026-05-05 15:06 | 60.13390 | 11.62561 | 21068 ft | 414 kts | 183° |
| 2026-05-05 15:07 | 60.10530 | 11.63460 | 21798 ft | 418 kts | 183° |
| 2026-05-05 15:07 | 60.07638 | 11.64415 | 22498 ft | 423 kts | 184° |
| 2026-05-05 15:07 | 60.04723 | 11.65361 | 23195 ft | 427 kts | 185° |
| 2026-05-05 15:07 | 60.01772 | 11.66288 | 23799 ft | 431 kts | 185° |
| 2026-05-05 15:08 | 59.98799 | 11.67224 | 24359 ft | 435 kts | 184° |
| 2026-05-05 15:08 | 59.95794 | 11.68186 | 24890 ft | 439 kts | 184° |
| 2026-05-05 15:08 | 59.92764 | 11.69155 | 25441 ft | 442 kts | 184° |
| 2026-05-05 15:08 | 59.89714 | 11.70119 | 25974 ft | 446 kts | 184° |
| 2026-05-05 15:09 | 59.86639 | 11.71086 | 26508 ft | 449 kts | 183° |
| 2026-05-05 15:09 | 59.83538 | 11.72063 | 27048 ft | 453 kts | 183° |
| 2026-05-05 15:09 | 59.80418 | 11.73050 | 27583 ft | 455 kts | 182° |
| 2026-05-05 15:09 | 59.77287 | 11.74038 | 28219 ft | 455 kts | 182° |
| 2026-05-05 15:10 | 59.74167 | 11.75023 | 29004 ft | 452 kts | 182° |
| 2026-05-05 15:10 | 59.71073 | 11.75993 | 29748 ft | 449 kts | 182° |
| 2026-05-05 15:10 | 59.67991 | 11.76948 | 30363 ft | 447 kts | 182° |
| 2026-05-05 15:10 | 59.64923 | 11.77912 | 30895 ft | 448 kts | 180° |
| 2026-05-05 15:11 | 59.61865 | 11.79428 | 31430 ft | 456 kts | 174° |
| 2026-05-05 15:11 | 59.58819 | 11.81209 | 31968 ft | 456 kts | 173° |
| 2026-05-05 15:11 | 59.55823 | 11.82934 | 32494 ft | 454 kts | 174° |
| 2026-05-05 15:11 | 59.52788 | 11.84616 | 33002 ft | 452 kts | 174° |
| 2026-05-05 15:12 | 59.49760 | 11.86294 | 33514 ft | 452 kts | 174° |
| 2026-05-05 15:12 | 59.46735 | 11.88007 | 33929 ft | 454 kts | 173° |
| 2026-05-05 15:12 | 59.43662 | 11.89738 | 33879 ft | 462 kts | 173° |
| 2026-05-05 15:13 | 59.37529 | 11.93170 | 33882 ft | 458 kts | 173° |
| 2026-05-05 15:13 | 59.31387 | 11.96335 | 33886 ft | 451 kts | 179° |
| 2026-05-05 15:14 | 59.25210 | 11.98520 | 33890 ft | 451 kts | 179° |
| 2026-05-05 15:14 | 59.19040 | 12.00803 | 33891 ft | 451 kts | 179° |
| 2026-05-05 15:15 | 59.12865 | 12.03019 | 33895 ft | 451 kts | 179° |
| 2026-05-05 15:15 | 59.06686 | 12.05258 | 33897 ft | 452 kts | 179° |
| 2026-05-05 15:16 | 59.00506 | 12.07477 | 33897 ft | 452 kts | 179° |
| 2026-05-05 15:16 | 58.94319 | 12.09694 | 33907 ft | 452 kts | 179° |
| 2026-05-05 15:17 | 58.88136 | 12.11901 | 33908 ft | 451 kts | 179° |
| 2026-05-05 15:17 | 58.82001 | 12.14084 | 33908 ft | 451 kts | 179° |
| 2026-05-05 15:18 | 58.75836 | 12.16270 | 33909 ft | 450 kts | 179° |
| 2026-05-05 15:18 | 58.69676 | 12.18442 | 33907 ft | 450 kts | 179° |
| 2026-05-05 15:19 | 58.63515 | 12.20612 | 33917 ft | 450 kts | 179° |
| 2026-05-05 15:19 | 58.57352 | 12.22771 | 33919 ft | 450 kts | 179° |
| 2026-05-05 15:20 | 58.51179 | 12.24927 | 33924 ft | 451 kts | 179° |
| 2026-05-05 15:20 | 58.44997 | 12.27082 | 33925 ft | 452 kts | 179° |
| 2026-05-05 15:21 | 58.38827 | 12.29027 | 33934 ft | 447 kts | 182° |
| 2026-05-05 15:21 | 58.32662 | 12.30882 | 33934 ft | 452 kts | 177° |
| 2026-05-05 15:22 | 58.26513 | 12.33222 | 33931 ft | 448 kts | 179° |
| 2026-05-05 15:22 | 58.20370 | 12.35186 | 33924 ft | 449 kts | 178° |
| 2026-05-05 15:23 | 58.14237 | 12.37391 | 33926 ft | 447 kts | 179° |
| 2026-05-05 15:23 | 58.08114 | 12.39420 | 33934 ft | 447 kts | 179° |
| 2026-05-05 15:24 | 58.01993 | 12.41543 | 33928 ft | 447 kts | 179° |
| 2026-05-05 15:24 | 57.95867 | 12.43601 | 33931 ft | 447 kts | 179° |
| 2026-05-05 15:25 | 57.89738 | 12.45687 | 33924 ft | 448 kts | 178° |
| 2026-05-05 15:25 | 57.84644 | 12.47400 | 33930 ft | 448 kts | 178° |
| 2026-05-05 15:26 | 57.78508 | 12.49464 | 33926 ft | 448 kts | 178° |
| 2026-05-05 15:26 | 57.72379 | 12.51518 | 33929 ft | 447 kts | 178° |
| 2026-05-05 15:27 | 57.66251 | 12.53563 | 33942 ft | 447 kts | 178° |
| 2026-05-05 15:27 | 57.60123 | 12.55602 | 33928 ft | 447 kts | 178° |
| 2026-05-05 15:28 | 57.54033 | 12.57621 | 33933 ft | 448 kts | 178° |
| 2026-05-05 15:28 | 57.47857 | 12.59662 | 33929 ft | 448 kts | 178° |
| 2026-05-05 15:29 | 57.41759 | 12.61670 | 33927 ft | 448 kts | 178° |
| 2026-05-05 15:29 | 57.35619 | 12.63686 | 33932 ft | 448 kts | 178° |
| 2026-05-05 15:30 | 57.29485 | 12.65691 | 33932 ft | 448 kts | 178° |
| 2026-05-05 15:30 | 57.23349 | 12.67694 | 33933 ft | 447 kts | 178° |
| 2026-05-05 15:31 | 57.17217 | 12.69684 | 33932 ft | 447 kts | 178° |
| 2026-05-05 15:31 | 57.11095 | 12.71668 | 33932 ft | 447 kts | 177° |
| 2026-05-05 15:32 | 57.04972 | 12.73643 | 33932 ft | 447 kts | 177° |
| 2026-05-05 15:32 | 56.98840 | 12.75617 | 33931 ft | 447 kts | 177° |
| 2026-05-05 15:33 | 56.92710 | 12.77581 | 33931 ft | 447 kts | 177° |
| 2026-05-05 15:33 | 56.86577 | 12.79540 | 33934 ft | 448 kts | 177° |
| 2026-05-05 15:34 | 56.80442 | 12.81494 | 33934 ft | 448 kts | 177° |
| 2026-05-05 15:34 | 56.74305 | 12.83442 | 33928 ft | 447 kts | 177° |
| 2026-05-05 15:35 | 56.68167 | 12.85383 | 33927 ft | 448 kts | 177° |
| 2026-05-05 15:35 | 56.62061 | 12.87310 | 33932 ft | 448 kts | 177° |
| 2026-05-05 15:36 | 56.55917 | 12.89239 | 33929 ft | 448 kts | 177° |
| 2026-05-05 15:36 | 56.49768 | 12.91166 | 33929 ft | 449 kts | 176° |
| 2026-05-05 15:37 | 56.43610 | 12.93088 | 33938 ft | 449 kts | 176° |
| 2026-05-05 15:37 | 56.37452 | 12.95005 | 33934 ft | 449 kts | 176° |
| 2026-05-05 15:38 | 56.31286 | 12.96916 | 33929 ft | 449 kts | 176° |
| 2026-05-05 15:38 | 56.25128 | 12.98822 | 33930 ft | 449 kts | 176° |
| 2026-05-05 15:39 | 56.18966 | 13.00718 | 33928 ft | 449 kts | 176° |
| 2026-05-05 15:39 | 56.12800 | 13.02614 | 33926 ft | 449 kts | 176° |
| 2026-05-05 15:40 | 56.06646 | 13.04496 | 33932 ft | 449 kts | 176° |
| 2026-05-05 15:40 | 56.00485 | 13.06377 | 33932 ft | 449 kts | 176° |
| 2026-05-05 15:41 | 55.94327 | 13.08250 | 33925 ft | 449 kts | 175° |
| 2026-05-05 15:41 | 55.88171 | 13.10115 | 33921 ft | 449 kts | 175° |
| 2026-05-05 15:42 | 55.82016 | 13.11976 | 33919 ft | 448 kts | 175° |
| 2026-05-05 15:42 | 55.75867 | 13.13828 | 33908 ft | 448 kts | 175° |
| 2026-05-05 15:43 | 55.69721 | 13.15674 | 33907 ft | 448 kts | 175° |
| 2026-05-05 15:43 | 55.63582 | 13.17511 | 33900 ft | 447 kts | 175° |
| 2026-05-05 15:44 | 55.57489 | 13.19330 | 33897 ft | 447 kts | 175° |
| 2026-05-05 15:44 | 55.51346 | 13.21156 | 33909 ft | 448 kts | 175° |
| 2026-05-05 15:45 | 55.45198 | 13.22979 | 33904 ft | 448 kts | 175° |
| 2026-05-05 15:45 | 55.39061 | 13.24794 | 33903 ft | 447 kts | 174° |
| 2026-05-05 15:46 | 55.32920 | 13.26601 | 33902 ft | 447 kts | 174° |
| 2026-05-05 15:46 | 55.26782 | 13.28406 | 33899 ft | 447 kts | 174° |
| 2026-05-05 15:47 | 55.20648 | 13.30201 | 33897 ft | 447 kts | 175° |
| 2026-05-05 15:47 | 55.14514 | 13.31992 | 33900 ft | 447 kts | 175° |
| 2026-05-05 15:48 | 55.08389 | 13.33773 | 33905 ft | 446 kts | 175° |
| 2026-05-05 15:48 | 55.02264 | 13.35550 | 33899 ft | 446 kts | 175° |
| 2026-05-05 15:49 | 54.96147 | 13.37319 | 33903 ft | 445 kts | 175° |
| 2026-05-05 15:49 | 54.90021 | 13.39085 | 33901 ft | 446 kts | 175° |
| 2026-05-05 15:50 | 54.83907 | 13.40852 | 33903 ft | 445 kts | 175° |
| 2026-05-05 15:50 | 54.77796 | 13.42609 | 33904 ft | 445 kts | 176° |
| 2026-05-05 15:51 | 54.71693 | 13.44360 | 33904 ft | 444 kts | 176° |
| 2026-05-05 15:51 | 54.65593 | 13.46103 | 33905 ft | 444 kts | 176° |
| 2026-05-05 15:52 | 54.59534 | 13.47830 | 33906 ft | 445 kts | 176° |
| 2026-05-05 15:52 | 54.56495 | 13.48085 | 33934 ft | 431 kts | 194° |
| 2026-05-05 15:52 | 54.53598 | 13.46946 | 33910 ft | 426 kts | 202° |
| 2026-05-05 15:53 | 54.47979 | 13.43853 | 33904 ft | 425 kts | 201° |
| 2026-05-05 15:53 | 54.42164 | 13.41712 | 33906 ft | 428 kts | 197° |
| 2026-05-05 15:54 | 54.36402 | 13.39359 | 33904 ft | 425 kts | 200° |
| 2026-05-05 15:54 | 54.30633 | 13.37064 | 33902 ft | 426 kts | 198° |
| 2026-05-05 15:55 | 54.24865 | 13.34787 | 33902 ft | 424 kts | 200° |
| 2026-05-05 15:55 | 54.19108 | 13.32491 | 33898 ft | 425 kts | 199° |
| 2026-05-05 15:56 | 54.13348 | 13.30232 | 33899 ft | 425 kts | 200° |
| 2026-05-05 15:56 | 54.07589 | 13.27953 | 33893 ft | 425 kts | 199° |
| 2026-05-05 15:57 | 54.01830 | 13.25700 | 33893 ft | 425 kts | 199° |
| 2026-05-05 15:57 | 53.96078 | 13.23443 | 33892 ft | 424 kts | 199° |
| 2026-05-05 15:58 | 53.90331 | 13.21203 | 33889 ft | 424 kts | 199° |
| 2026-05-05 15:58 | 53.84591 | 13.18967 | 33891 ft | 423 kts | 199° |
| 2026-05-05 15:59 | 53.78858 | 13.16742 | 33884 ft | 423 kts | 199° |
| 2026-05-05 15:59 | 53.73131 | 13.14525 | 33887 ft | 422 kts | 199° |
| 2026-05-05 16:00 | 53.67416 | 13.12319 | 33887 ft | 422 kts | 199° |
| 2026-05-05 16:00 | 53.61698 | 13.10118 | 33880 ft | 421 kts | 199° |
| 2026-05-05 16:01 | 53.55988 | 13.07926 | 33883 ft | 421 kts | 199° |
| 2026-05-05 16:01 | 53.53167 | 13.06851 | 33467 ft | 411 kts | 199° |